Time;durP1;ratioP1;P1;durP2;ratioP2;P2;SDS_P1;SDS_P2;PMS_P1;PMS_P2;Temp;Humidity;BMP_temperature;BMP_pressure;BME280_temperature;BME280_humidity;BME280_pressure;Samples;Min_cycle;Max_cycle;Signal;HPM_P1;HPM_P2
2021/06/07 00:01:41;;;;;;;10.13;9.13;;;17.00;90.30;;;;;;5062775;28;20021;-84
2021/06/07 00:04:08;;;;;;;12.60;10.18;;;16.90;90.50;;;;;;5074108;28;20021;-83
2021/06/07 00:06:35;;;;;;;11.05;9.90;;;16.80;90.70;;;;;;5072776;28;20008;-84
2021/06/07 00:09:03;;;;;;;14.00;10.73;;;16.80;90.80;;;;;;5065383;28;20033;-85
2021/06/07 00:11:29;;;;;;;13.63;10.50;;;16.70;91.40;;;;;;5070632;28;20013;-84
2021/06/07 00:13:55;;;;;;;11.90;10.70;;;16.60;91.30;;;;;;5068556;28;20027;-84
2021/06/07 00:16:21;;;;;;;14.23;11.40;;;16.60;91.60;;;;;;5060338;28;20493;-83
2021/06/07 00:18:47;;;;;;;13.82;10.77;;;16.60;91.70;;;;;;5072777;28;20106;-82
2021/06/07 00:21:19;;;;;;;12.77;10.95;;;16.60;91.80;;;;;;5068470;28;20025;-82
2021/06/07 00:23:46;;;;;;;12.68;11.40;;;16.60;91.80;;;;;;5065401;28;20025;-84
2021/06/07 00:26:12;;;;;;;13.70;10.45;;;16.60;91.90;;;;;;5063948;28;20033;-85
2021/06/07 00:28:39;;;;;;;12.32;11.02;;;16.60;92.00;;;;;;5062781;28;20048;-84
2021/06/07 00:31:06;;;;;;;13.23;10.02;;;16.60;92.00;;;;;;5071396;28;20428;-83
2021/06/07 00:33:33;;;;;;;13.98;10.52;;;16.60;92.00;;;;;;5068165;28;20074;-85
2021/06/07 00:36:00;;;;;;;13.00;11.27;;;16.60;92.00;;;;;;5081069;28;20020;-84
2021/06/07 00:38:26;;;;;;;13.63;11.77;;;16.60;92.10;;;;;;5086027;28;20052;-85
2021/06/07 00:40:52;;;;;;;11.45;10.25;;;16.60;92.10;;;;;;5082307;28;20043;-86
2021/06/07 00:43:18;;;;;;;11.60;10.50;;;16.60;92.00;;;;;;5070971;28;20056;-85
2021/06/07 00:45:44;;;;;;;14.15;10.15;;;16.60;91.90;;;;;;5071778;28;20021;-84
2021/06/07 00:48:10;;;;;;;11.63;10.02;;;16.60;92.00;;;;;;5078735;28;20052;-84
2021/06/07 00:50:48;;;;;;;12.32;9.27;;;16.60;91.80;;;;;;5078071;28;20021;-84
2021/06/07 00:53:17;;;;;;;10.35;9.27;;;16.60;91.60;;;;;;5073618;28;20389;-83
2021/06/07 00:55:48;;;;;;;10.50;8.80;;;16.60;91.50;;;;;;5072688;28;20063;-83
2021/06/07 00:58:17;;;;;;;9.75;8.75;;;16.60;91.40;;;;;;5072674;28;20029;-83
2021/06/07 01:00:43;;;;;;;10.57;8.52;;;16.60;91.40;;;;;;5072313;28;20119;-83
2021/06/07 01:03:17;;;;;;;11.90;9.20;;;16.50;91.40;;;;;;5072300;28;20025;-82
2021/06/07 01:05:44;;;;;;;10.07;9.18;;;16.50;91.40;;;;;;5075642;28;20420;-82
2021/06/07 01:08:10;;;;;;;10.13;9.10;;;16.50;91.50;;;;;;5070769;28;20022;-82
2021/06/07 01:10:36;;;;;;;11.23;8.68;;;16.40;91.50;;;;;;5076011;28;20017;-82
2021/06/07 01:13:02;;;;;;;8.93;8.13;;;16.40;91.40;;;;;;5076048;28;20032;-84
2021/06/07 01:15:28;;;;;;;11.23;8.52;;;16.40;91.30;;;;;;5074836;28;20489;-82
2021/06/07 01:17:55;;;;;;;9.32;8.43;;;16.30;91.30;;;;;;5076109;28;20020;-84
2021/06/07 01:20:23;;;;;;;9.32;8.07;;;16.30;91.80;;;;;;5076377;28;20039;-84
2021/06/07 01:22:50;;;;;;;10.15;9.25;;;16.30;91.70;;;;;;5068954;28;20060;-82
2021/06/07 01:25:29;;;;;;;11.18;8.95;;;16.30;91.50;;;;;;5071269;28;20052;-83
2021/06/07 01:27:57;;;;;;;10.85;8.23;;;16.30;91.40;;;;;;5077835;28;20037;-82
2021/06/07 01:30:29;;;;;;;13.40;9.90;;;16.30;91.40;;;;;;5076084;28;20107;-83
2021/06/07 01:32:55;;;;;;;9.95;8.40;;;16.20;91.40;;;;;;5075779;28;20020;-83
2021/06/07 01:35:22;;;;;;;9.95;8.75;;;16.20;91.40;;;;;;5075874;28;20021;-85
2021/06/07 01:37:49;;;;;;;11.60;8.63;;;16.30;91.20;;;;;;5075195;28;20036;-83
2021/06/07 01:40:23;;;;;;;9.45;8.55;;;16.30;91.10;;;;;;5075062;28;20094;-83
2021/06/07 01:42:49;;;;;;;8.20;7.40;;;16.30;90.90;;;;;;5075399;28;20547;-82
2021/06/07 01:45:18;;;;;;;9.07;8.20;;;16.30;90.80;;;;;;5067445;28;20033;-84
2021/06/07 01:47:45;;;;;;;10.05;9.05;;;16.30;90.70;;;;;;5068093;28;20024;-83
2021/06/07 01:50:12;;;;;;;9.63;8.73;;;16.30;90.60;;;;;;5071996;28;20382;-83
2021/06/07 01:52:43;;;;;;;10.70;9.30;;;16.30;90.50;;;;;;5072924;28;20032;-81
2021/06/07 01:55:33;;;;;;;10.00;9.05;;;16.30;90.40;;;;;;5073650;28;20025;-83
2021/06/07 01:57:59;;;;;;;11.73;8.55;;;16.30;90.40;;;;;;5085733;28;20146;-84
2021/06/07 02:00:49;;;;;;;10.18;9.27;;;16.40;90.50;;;;;;5079632;28;20032;-84
2021/06/07 02:03:17;;;;;;;9.15;8.27;;;16.40;90.60;;;;;;5066393;28;20029;-84
2021/06/07 02:05:45;;;;;;;11.55;9.30;;;16.40;90.70;;;;;;5075777;28;20025;-83
2021/06/07 02:08:14;;;;;;;10.23;9.25;;;16.40;90.60;;;;;;5070285;28;20074;-84
2021/06/07 02:10:44;;;;;;;11.07;9.02;;;16.30;90.70;;;;;;5075124;28;20078;-83
2021/06/07 02:13:13;;;;;;;16.80;10.93;;;16.40;90.70;;;;;;5070759;28;20089;-84
2021/06/07 02:15:42;;;;;;;10.15;8.30;;;16.40;90.50;;;;;;5072454;28;20044;-85
2021/06/07 02:18:11;;;;;;;9.75;8.82;;;16.40;90.50;;;;;;5073285;28;20032;-85
2021/06/07 02:20:38;;;;;;;10.77;8.45;;;16.50;90.60;;;;;;5076068;28;20049;-84
2021/06/07 02:23:04;;;;;;;;;;;16.50;90.60;;;;;;5075645;28;20070;-85
2021/06/07 02:25:30;;;;;;;11.75;9.32;;;16.60;90.40;;;;;;5074601;28;19909;-84
2021/06/07 02:27:56;;;;;;;15.80;11.55;;;16.60;90.60;;;;;;5068064;28;20464;-85
2021/06/07 02:30:26;;;;;;;10.60;9.57;;;16.80;90.60;;;;;;5068805;28;20299;-81
2021/06/07 02:32:54;;;;;;;13.80;10.55;;;16.80;90.50;;;;;;5074619;28;20024;-84
2021/06/07 02:35:21;;;;;;;14.25;10.88;;;16.90;90.50;;;;;;5064011;28;20096;-84
2021/06/07 02:37:49;;;;;;;10.15;9.15;;;17.00;90.30;;;;;;5068635;28;20103;-82
2021/06/07 02:40:18;;;;;;;10.60;9.50;;;17.00;90.10;;;;;;5075377;28;20036;-82
2021/06/07 02:42:48;;;;;;;11.82;10.70;;;17.10;90.00;;;;;;5080263;28;20385;-83
2021/06/07 02:45:16;;;;;;;12.68;11.23;;;17.10;89.40;;;;;;5086070;28;20036;-81
2021/06/07 02:47:43;;;;;;;13.00;11.85;;;17.20;89.40;;;;;;5082896;28;20055;-85
2021/06/07 02:50:18;;;;;;;12.32;11.00;;;17.20;89.20;;;;;;5074553;28;20016;-85
2021/06/07 02:52:47;;;;;;;14.48;10.65;;;17.30;88.70;;;;;;5074204;28;20024;-82
2021/06/07 02:55:20;;;;;;;11.80;10.57;;;17.30;87.60;;;;;;5074204;28;20070;-82
2021/06/07 02:57:48;;;;;;;11.93;10.73;;;17.40;87.40;;;;;;5067696;28;20477;-83
2021/06/07 03:00:20;;;;;;;11.77;10.57;;;17.40;87.40;;;;;;5066524;28;20043;-83
2021/06/07 03:02:46;;;;;;;10.13;9.13;;;17.50;87.10;;;;;;5074049;28;20436;-84
2021/06/07 03:05:13;;;;;;;13.60;10.77;;;17.60;86.60;;;;;;5073636;28;20024;-84
2021/06/07 03:07:39;;;;;;;12.73;11.25;;;17.70;86.20;;;;;;5073628;28;20534;-82
2021/06/07 03:10:09;;;;;;;10.27;9.27;;;17.70;85.70;;;;;;5071561;28;20029;-86
2021/06/07 03:12:36;;;;;;;14.48;10.27;;;17.70;85.40;;;;;;5067933;28;20017;-83
2021/06/07 03:15:04;;;;;;;11.30;10.15;;;17.80;85.40;;;;;;5069753;28;20524;-84
2021/06/07 03:17:30;;;;;;;10.35;9.32;;;17.90;85.30;;;;;;5073723;28;20082;-85
2021/06/07 03:19:56;;;;;;;11.27;9.80;;;18.00;84.80;;;;;;5073492;28;20032;-83
2021/06/07 03:22:22;;;;;;;9.70;8.68;;;18.20;83.90;;;;;;5074071;28;20170;-84
2021/06/07 03:24:49;;;;;;;10.20;9.20;;;18.40;83.40;;;;;;5072942;28;20031;-84
2021/06/07 03:27:19;;;;;;;10.18;8.88;;;18.50;82.70;;;;;;5066903;28;20056;-84
2021/06/07 03:29:46;;;;;;;9.15;8.25;;;18.70;81.80;;;;;;5073366;28;20095;-84
2021/06/07 03:32:12;;;;;;;9.15;7.10;;;18.80;81.00;;;;;;5073389;28;20377;-84
2021/06/07 03:34:38;;;;;;;8.73;7.82;;;19.00;80.20;;;;;;5056358;28;20021;-84
2021/06/07 03:37:04;;;;;;;11.73;7.05;;;19.10;79.40;;;;;;5068338;28;20031;-85
2021/06/07 03:39:30;;;;;;;9.60;6.75;;;19.30;78.30;;;;;;5073671;28;20056;-85
2021/06/07 03:41:56;;;;;;;8.10;6.90;;;19.40;77.60;;;;;;5073040;28;20024;-85
2021/06/07 03:44:22;;;;;;;7.75;6.32;;;19.60;76.60;;;;;;5073341;28;20020;-84
2021/06/07 03:47:54;;;;;;;7.07;5.63;;;19.70;75.90;;;;;;5073501;28;20470;-86
2021/06/07 03:49:49;;;;;;;6.32;4.38;;;19.80;74.50;;;;;;5045592;28;20029;-87
2021/06/07 03:52:16;;;;;;;5.28;4.75;;;19.70;73.20;;;;;;5067014;28;21270;-86
2021/06/07 03:54:42;;;;;;;8.97;5.23;;;19.60;73.00;;;;;;5071954;28;20024;-85
2021/06/07 03:57:08;;;;;;;7.45;4.53;;;19.50;73.80;;;;;;5076059;28;20020;-84
2021/06/07 03:59:34;;;;;;;12.25;8.73;;;19.50;73.50;;;;;;5074863;28;20033;-86
2021/06/07 04:02:10;;;;;;;9.85;6.65;;;19.40;73.80;;;;;;5075436;28;20027;-84
2021/06/07 04:04:36;;;;;;;6.38;4.70;;;19.40;74.20;;;;;;5074633;28;20016;-86
2021/06/07 04:07:05;;;;;;;36.72;24.95;;;19.50;73.50;;;;;;5072888;28;20025;-84
2021/06/07 04:09:31;;;;;;;8.90;5.85;;;19.50;73.80;;;;;;5067494;28;20155;-86
2021/06/07 04:11:58;;;;;;;7.80;4.55;;;19.50;73.30;;;;;;5078923;28;20040;-86
2021/06/07 04:14:41;;;;;;;8.75;4.85;;;19.60;72.50;;;;;;5062496;28;20112;-85
2021/06/07 04:17:08;;;;;;;8.68;4.75;;;19.50;73.00;;;;;;5072329;28;20028;-86
2021/06/07 04:19:34;;;;;;;9.73;5.22;;;19.70;72.70;;;;;;5073380;28;20474;-86
2021/06/07 04:22:00;;;;;;;7.82;4.57;;;19.90;72.30;;;;;;5071085;28;20402;-85
2021/06/07 04:24:27;;;;;;;5.85;3.60;;;19.80;71.20;;;;;;5072249;28;20389;-84
2021/06/07 04:26:53;;;;;;;12.30;4.53;;;19.80;71.40;;;;;;5072351;28;20029;-85
2021/06/07 04:29:19;;;;;;;5.35;3.15;;;19.80;71.30;;;;;;5072465;28;20134;-87
2021/06/07 04:31:44;;;;;;;4.72;3.28;;;19.90;71.30;;;;;;5072701;28;20028;-87
2021/06/07 04:34:11;;;;;;;4.55;2.95;;;19.90;71.10;;;;;;5072602;28;20039;-87
2021/06/07 04:36:36;;;;;;;11.32;6.38;;;19.90;70.90;;;;;;5074042;28;20039;-86
2021/06/07 04:39:04;;;;;;;9.10;5.00;;;20.00;71.30;;;;;;5060775;28;20458;-88
2021/06/07 04:41:30;;;;;;;5.90;4.35;;;20.20;71.40;;;;;;5072088;28;20032;-85
2021/06/07 04:43:56;;;;;;;7.15;4.40;;;20.30;71.30;;;;;;5081949;28;20016;-87
2021/06/07 04:46:22;;;;;;;5.82;3.83;;;20.60;70.50;;;;;;5081736;28;20030;-85
2021/06/07 04:48:48;;;;;;;3.83;3.35;;;20.70;69.20;;;;;;5085371;28;20032;-88
2021/06/07 04:51:14;;;;;;;7.45;4.43;;;20.70;69.60;;;;;;5089215;28;20050;-86
2021/06/07 04:53:39;;;;;;;4.07;3.63;;;20.60;69.40;;;;;;5094549;28;20035;-85
2021/06/07 04:56:08;;;;;;;10.48;6.80;;;20.40;69.50;;;;;;5086511;28;20029;-85
2021/06/07 04:58:34;;;;;;;6.03;3.90;;;20.50;70.00;;;;;;5073161;28;20381;-88
2021/06/07 05:01:04;;;;;;;7.10;5.20;;;20.50;70.00;;;;;;5073674;28;20028;-86
2021/06/07 05:03:30;;;;;;;6.45;4.93;;;20.70;70.20;;;;;;5073467;28;20452;-86
2021/06/07 05:05:58;;;;;;;12.70;4.83;;;20.80;69.80;;;;;;5072842;28;20364;-84
2021/06/07 05:08:28;;;;;;;6.10;3.58;;;20.90;69.70;;;;;;5073114;28;20035;-89
2021/06/07 05:10:55;;;;;;;5.57;4.65;;;21.00;67.20;;;;;;5073494;28;20052;-87
2021/06/07 05:13:21;;;;;;;5.28;3.30;;;20.90;67.00;;;;;;5073134;28;20021;-86
2021/06/07 05:15:47;;;;;;;4.20;3.55;;;20.70;67.20;;;;;;5074278;28;20543;-86
2021/06/07 05:18:14;;;;;;;6.40;5.40;;;20.50;67.50;;;;;;5072627;28;20025;-86
2021/06/07 05:20:41;;;;;;;7.03;4.55;;;20.50;67.90;;;;;;5071426;28;20044;-87
2021/06/07 05:23:08;;;;;;;9.05;5.85;;;20.60;68.40;;;;;;5075135;28;20437;-87
2021/06/07 05:25:35;;;;;;;4.80;3.25;;;20.90;67.20;;;;;;5073803;28;20028;-88
2021/06/07 05:28:04;;;;;;;7.68;3.83;;;21.10;66.30;;;;;;5073915;28;20072;-88
2021/06/07 05:30:31;;;;;;;6.70;4.13;;;21.20;66.10;;;;;;5073483;28;20485;-88
2021/06/07 05:32:57;;;;;;;6.47;3.75;;;21.10;65.90;;;;;;5071667;28;20032;-87
2021/06/07 05:35:25;;;;;;;5.75;3.88;;;20.90;66.30;;;;;;5072993;28;20029;-85
2021/06/07 05:37:51;;;;;;;13.93;7.25;;;20.80;67.10;;;;;;5072423;28;20367;-86
2021/06/07 05:40:19;;;;;;;7.65;3.92;;;20.90;67.50;;;;;;5072223;28;20086;-86
2021/06/07 05:42:46;;;;;;;7.18;4.78;;;20.90;66.60;;;;;;5068211;28;20043;-88
2021/06/07 05:45:13;;;;;;;13.38;9.05;;;20.90;67.30;;;;;;5068025;28;20035;-84
2021/06/07 05:47:40;;;;;;;7.03;5.18;;;20.80;67.50;;;;;;5074414;28;20413;-86
2021/06/07 05:50:09;;;;;;;13.55;7.20;;;20.90;67.20;;;;;;5072648;28;20073;-85
2021/06/07 05:52:35;;;;;;;6.57;4.32;;;21.00;67.40;;;;;;5064510;28;20165;-86
2021/06/07 05:55:01;;;;;;;7.15;3.70;;;21.60;67.00;;;;;;5069590;28;20132;-84
2021/06/07 05:57:27;;;;;;;9.48;3.90;;;22.80;64.90;;;;;;5078077;28;20027;-86
2021/06/07 05:59:53;;;;;;;6.00;4.30;;;;;;;;;;5087721;28;20477;-85
2021/06/07 06:02:19;;;;;;;7.53;3.10;;;;;;;;;;5082156;28;20016;-86
2021/06/07 06:04:45;;;;;;;5.15;3.05;;;24.60;59.30;;;;;;5076344;28;20020;-85
2021/06/07 06:07:11;;;;;;;4.25;2.17;;;26.20;53.30;;;;;;5076466;28;20098;-85
2021/06/07 06:09:37;;;;;;;5.78;2.05;;;;;;;;;;5076132;28;20445;-87
2021/06/07 06:12:03;;;;;;;3.70;2.08;;;;;;;;;;5076858;28;20103;-84
2021/06/07 06:14:29;;;;;;;4.70;2.50;;;;;;;;;;5075967;28;20077;-85
2021/06/07 06:16:56;;;;;;;6.07;3.05;;;;;;;;;;5075399;28;20016;-85
2021/06/07 06:19:25;;;;;;;6.33;2.93;;;;;;;;;;5076009;28;20047;-87
2021/06/07 06:21:51;;;;;;;9.18;4.00;;;;;;;;;;5066911;28;20261;-87
2021/06/07 06:24:18;;;;;;;5.28;3.17;;;;;;;;;;5076101;28;20079;-87
2021/06/07 06:26:44;;;;;;;6.80;3.70;;;;;;;;;;5072824;28;20218;-88
2021/06/07 06:29:10;;;;;;;8.68;4.40;;;;;;;;;;5077729;28;20067;-90
2021/06/07 06:31:36;;;;;;;6.97;3.13;;;;;;;;;;5080712;28;20032;-86
2021/06/07 06:34:03;;;;;;;9.80;4.82;;;;;;;;;;5077190;28;20095;-90
2021/06/07 06:36:38;;;;;;;7.70;5.83;;;;;;;;;;5074932;28;20024;-90
2021/06/07 06:39:05;;;;;;;5.97;3.85;;;;;;;;;;5060835;28;20036;-90
2021/06/07 06:41:31;;;;;;;;;;;;;;;;;;5063352;28;20028;-89
2021/06/07 06:44:01;;;;;;;6.68;4.03;;;;;;;;;;5078915;28;19904;-93
2021/06/07 06:46:27;;;;;;;4.15;3.42;;;;;;;;;;5072446;28;20090;-85
2021/06/07 06:48:53;;;;;;;7.97;4.43;;;;;;;;;;5068345;28;20024;-86
2021/06/07 06:51:19;;;;;;;6.68;5.15;;;;;;;;;;5072634;28;20058;-84
2021/06/07 06:53:46;;;;;;;7.68;4.80;;;;;;;;;;5073694;28;20397;-79
2021/06/07 06:56:12;;;;;;;8.50;4.57;;;;;;;;;;5073828;28;20082;-81
2021/06/07 06:58:38;;;;;;;7.60;3.28;;;;;;;;;;5074237;28;20017;-79
2021/06/07 07:01:04;;;;;;;3.65;3.10;;;;;;;;;;5075178;28;20032;-80
2021/06/07 07:03:30;;;;;;;4.88;3.40;;;;;;;;;;5075419;28;20024;-80
2021/06/07 07:05:56;;;;;;;7.47;3.22;;;;;;;;;;5088893;28;20029;-79
2021/06/07 07:08:24;;;;;;;5.78;3.15;;;25.70;53.40;;;;;;5067454;28;20032;-79
2021/06/07 07:10:50;;;;;;;9.15;4.28;;;22.20;64.30;;;;;;5074148;28;20021;-81
2021/06/07 07:13:16;;;;;;;5.35;3.08;;;22.70;62.90;;;;;;5073749;28;20085;-81
2021/06/07 07:15:42;;;;;;;5.53;2.92;;;23.60;60.50;;;;;;5073762;28;20024;-80
2021/06/07 07:18:10;;;;;;;6.20;4.53;;;24.20;58.50;;;;;;5072881;28;20024;-81
2021/06/07 07:20:37;;;;;;;4.75;3.20;;;25.50;55.60;;;;;;5073976;28;20028;-81
2021/06/07 07:23:05;;;;;;;3.40;2.28;;;27.50;53.60;;;;;;5073818;28;20047;-81
2021/06/07 07:25:31;;;;;;;3.63;2.42;;;28.40;48.50;;;;;;5074039;28;20031;-80
2021/06/07 07:27:57;;;;;;;4.18;2.30;;;27.70;47.20;;;;;;5073346;28;20493;-80
2021/06/07 07:30:28;;;;;;;3.92;2.85;;;26.70;49.40;;;;;;5073785;28;20100;-81
2021/06/07 07:32:55;;;;;;;10.52;4.97;;;26.10;50.20;;;;;;5073350;28;20044;-80
2021/06/07 07:35:21;;;;;;;;;;;25.40;52.00;;;;;;5074259;28;20042;-81
2021/06/07 07:37:47;;;;;;;9.13;2.88;;;25.20;53.20;;;;;;5073081;28;19946;-80
2021/06/07 07:40:51;;;;;;;7.82;3.10;;;24.90;53.70;;;;;;5073333;28;20068;-80
2021/06/07 07:43:17;;;;;;;4.20;2.67;;;26.30;53.40;;;;;;5048510;28;20116;-82
2021/06/07 07:45:43;;;;;;;5.47;2.95;;;28.20;48.20;;;;;;5073817;28;20446;-80
2021/06/07 07:48:09;;;;;;;6.50;2.58;;;30.20;45.30;;;;;;5071863;28;20017;-80
2021/06/07 07:50:36;;;;;;;5.57;3.07;;;32.30;42.40;;;;;;5073290;28;20024;-80
2021/06/07 07:53:03;;;;;;;5.47;3.13;;;33.30;38.70;;;;;;5071451;28;20024;-80
2021/06/07 07:55:31;;;;;;;4.50;2.33;;;33.50;38.20;;;;;;5073166;28;20052;-79
2021/06/07 07:57:59;;;;;;;6.57;2.83;;;34.50;36.30;;;;;;5072780;28;20020;-81
2021/06/07 08:00:27;;;;;;;6.88;2.70;;;33.70;37.60;;;;;;5072836;28;20025;-81
2021/06/07 08:02:53;;;;;;;4.60;2.72;;;33.60;37.70;;;;;;5073654;28;20016;-80
2021/06/07 08:05:20;;;;;;;6.03;2.97;;;34.00;37.10;;;;;;5072608;28;20021;-79
2021/06/07 08:07:46;;;;;;;;;;;33.30;37.40;;;;;;5073030;28;20046;-80
2021/06/07 08:10:12;;;;;;;8.25;2.67;;;32.90;38.60;;;;;;5072728;28;20011;-80
2021/06/07 08:12:41;;;;;;;5.97;2.85;;;33.90;37.70;;;;;;5071957;28;20028;-79
2021/06/07 08:15:09;;;;;;;2.90;2.63;;;34.80;35.60;;;;;;5072030;28;20434;-82
2021/06/07 08:17:35;;;;;;;7.32;2.92;;;34.80;36.10;;;;;;5072477;28;20465;-81
2021/06/07 08:20:02;;;;;;;6.20;3.55;;;;;;;;;;5071306;28;20037;-81
2021/06/07 08:22:28;;;;;;;6.53;3.55;;;33.80;36.70;;;;;;5071251;28;20520;-80
2021/06/07 08:24:54;;;;;;;5.50;3.35;;;30.30;41.60;;;;;;5072604;28;20029;-80
2021/06/07 08:27:20;;;;;;;3.78;3.10;;;28.80;44.20;;;;;;5071805;28;20025;-80
2021/06/07 08:29:46;;;;;;;5.60;3.47;;;27.50;46.90;;;;;;5071773;28;20121;-82
2021/06/07 08:32:11;;;;;;;4.47;3.78;;;27.00;49.20;;;;;;5071553;28;20401;-82
2021/06/07 08:34:37;;;;;;;8.48;3.58;;;28.20;48.20;;;;;;5071592;28;20370;-83
2021/06/07 08:37:03;;;;;;;5.47;2.70;;;30.30;44.70;;;;;;5072870;28;20024;-81
2021/06/07 08:39:29;;;;;;;9.98;2.88;;;32.30;41.50;;;;;;5070676;28;20128;-81
2021/06/07 08:41:57;;;;;;;2.97;2.50;;;33.70;37.70;;;;;;5072408;28;20517;-81
2021/06/07 08:44:24;;;;;;;10.02;2.42;;;32.90;36.60;;;;;;5072281;28;20028;-80
2021/06/07 08:46:50;;;;;;;7.18;1.80;;;33.20;36.30;;;;;;5071756;28;20074;-81
2021/06/07 08:49:16;;;;;;;14.32;2.00;;;33.50;35.40;;;;;;5072443;28;20141;-81
2021/06/07 08:51:42;;;;;;;3.05;1.85;;;34.70;34.40;;;;;;5072048;28;20033;-81
2021/06/07 08:54:08;;;;;;;2.90;1.83;;;34.80;33.10;;;;;;5071160;28;20025;-80
2021/06/07 08:56:34;;;;;;;1.50;1.10;;;34.30;33.60;;;;;;5068312;28;20258;-81
2021/06/07 08:58:59;;;;;;;5.70;1.63;;;34.20;33.60;;;;;;5062395;28;20489;-81
2021/06/07 09:01:25;;;;;;;6.88;1.45;;;35.20;33.30;;;;;;5072588;28;20109;-80
2021/06/07 09:03:51;;;;;;;3.92;2.13;;;36.90;32.40;;;;;;5072219;28;20020;-83
2021/06/07 09:06:25;;;;;;;3.40;2.30;;;36.60;31.60;;;;;;5070750;28;20137;-80
2021/06/07 09:09:04;;;;;;;6.80;2.83;;;33.80;34.20;;;;;;5058863;28;20539;-80
2021/06/07 09:11:31;;;;;;;9.77;4.25;;;;;;;;;;5071735;28;20021;-81
2021/06/07 09:13:57;;;;;;;6.15;4.93;;;30.90;38.50;;;;;;5072490;28;20013;-81
2021/06/07 09:16:35;;;;;;;6.38;2.90;;;29.80;41.70;;;;;;5077087;28;20036;-80
2021/06/07 09:19:17;;;;;;;5.47;3.22;;;29.80;42.30;;;;;;5085520;28;20072;-83
2021/06/07 09:21:44;;;;;;;8.13;4.25;;;30.30;42.50;;;;;;5072869;28;20025;-82
2021/06/07 09:24:10;;;;;;;3.00;2.63;;;31.10;41.30;;;;;;5072173;28;20017;-81
2021/06/07 09:26:39;;;;;;;14.43;3.90;;;31.90;39.30;;;;;;5075055;28;20024;-82
2021/06/07 09:29:08;;;;;;;13.02;3.83;;;32.80;38.60;;;;;;5075451;28;20120;-83
2021/06/07 09:31:39;;;;;;;6.78;3.22;;;33.00;37.30;;;;;;5075586;28;20435;-82
2021/06/07 09:34:10;;;;;;;5.90;3.22;;;32.60;37.00;;;;;;5075428;28;20024;-80
2021/06/07 09:36:40;;;;;;;8.95;3.25;;;33.00;37.30;;;;;;5075788;28;20478;-80
2021/06/07 09:39:12;;;;;;;12.68;6.95;;;33.50;35.90;;;;;;5075793;28;20025;-82
2021/06/07 09:41:58;;;;;;;7.10;1.88;;;34.10;35.00;;;;;;5074777;28;20028;-80
2021/06/07 09:44:23;;;;;;;;;;;34.40;34.80;;;;;;5075984;28;20025;-80
2021/06/07 09:46:51;;;;;;;5.00;1.80;;;34.00;34.90;;;;;;5075624;28;19905;-82
2021/06/07 09:49:20;;;;;;;3.35;1.63;;;34.20;34.40;;;;;;5075446;28;20024;-80
2021/06/07 09:51:59;;;;;;;3.03;2.00;;;34.60;33.60;;;;;;5075536;28;20028;-81
2021/06/07 09:54:26;;;;;;;3.97;2.00;;;;;;;;;;5075911;28;20023;-81
2021/06/07 09:56:54;;;;;;;2.13;1.42;;;35.00;33.40;;;;;;5074609;28;20043;-80
2021/06/07 09:59:25;;;;;;;3.53;1.90;;;36.70;31.30;;;;;;5075429;28;20029;-82
2021/06/07 10:01:51;;;;;;;5.35;1.80;;;36.80;30.80;;;;;;5076000;28;20391;-82
2021/06/07 10:04:17;;;;;;;3.13;2.17;;;36.40;30.70;;;;;;5075764;28;20030;-81
2021/06/07 10:06:43;;;;;;;5.60;2.30;;;36.70;30.90;;;;;;5075266;28;20024;-82
2021/06/07 10:09:11;;;;;;;2.78;1.35;;;36.10;30.80;;;;;;5075257;28;20044;-80
2021/06/07 10:11:42;;;;;;;5.53;1.42;;;;;;;;;;5074547;28;20108;-80
2021/06/07 10:14:11;;;;;;;1.85;1.65;;;;;;;;;;5075092;28;20494;-81
2021/06/07 10:16:38;;;;;;;2.33;1.80;;;;;;;;;;5074900;28;20090;-81
2021/06/07 10:19:07;;;;;;;1.85;1.60;;;;;;;;;;5071742;28;20480;-80
2021/06/07 10:21:34;;;;;;;3.17;1.30;;;;;;;;;;5074842;28;20481;-81
2021/06/07 10:24:00;;;;;;;;;;;;;;;;;;5075136;28;20104;-82
2021/06/07 10:26:27;;;;;;;3.47;2.42;;;;;;;;;;5075041;28;19908;-80
2021/06/07 10:28:53;;;;;;;;;;;;;;;;;;5073513;28;20048;-82
2021/06/07 10:31:21;;;;;;;3.63;1.52;;;34.60;31.30;;;;;;5074241;28;19905;-82
2021/06/07 10:34:01;;;;;;;8.55;4.65;;;31.60;37.20;;;;;;5072853;28;20051;-82
2021/06/07 10:36:29;;;;;;;2.72;1.73;;;30.60;39.20;;;;;;5074544;28;20493;-82
2021/06/07 10:39:12;;;;;;;8.13;1.88;;;29.60;40.50;;;;;;5074380;28;20484;-81
2021/06/07 10:41:39;;;;;;;3.97;2.78;;;28.60;41.40;;;;;;5054921;28;20436;-81
2021/06/07 10:44:05;;;;;;;;;;;27.90;43.30;;;;;;5068141;28;20062;-80
2021/06/07 10:46:33;;;;;;;2.87;2.53;;;27.30;43.70;;;;;;5074057;28;19954;-81
2021/06/07 10:49:01;;;;;;;7.00;3.00;;;26.90;45.70;;;;;;5074402;28;20035;-82
2021/06/07 10:51:33;;;;;;;8.32;2.75;;;26.60;46.40;;;;;;5074096;28;20020;-81
2021/06/07 10:54:30;;;;;;;3.42;2.30;;;26.40;47.30;;;;;;5072956;28;20043;-82
2021/06/07 10:57:16;;;;;;;9.65;5.03;;;26.50;47.10;;;;;;5060827;28;20380;-80
2021/06/07 10:59:48;;;;;;;3.53;2.20;;;26.40;47.60;;;;;;5073068;28;20058;-82
2021/06/07 11:02:17;;;;;;;3.95;3.58;;;26.30;47.30;;;;;;5074007;28;20032;-80
2021/06/07 11:04:44;;;;;;;5.85;3.25;;;26.30;47.30;;;;;;5074874;28;20423;-81
2021/06/07 11:07:11;;;;;;;4.13;2.50;;;26.30;47.70;;;;;;5074473;28;20020;-84
2021/06/07 11:10:15;;;;;;;2.97;2.45;;;26.40;46.70;;;;;;5074309;28;20021;-82
2021/06/07 11:12:43;;;;;;;5.25;2.45;;;26.10;46.70;;;;;;5061055;28;20040;-81
2021/06/07 11:15:20;;;;;;;4.70;2.60;;;25.80;46.90;;;;;;5070762;28;20028;-81
2021/06/07 11:17:46;;;;;;;3.67;2.40;;;25.50;47.40;;;;;;5073639;28;20100;-79
2021/06/07 11:20:14;;;;;;;6.57;4.43;;;25.30;48.50;;;;;;5073545;28;20051;-80
2021/06/07 11:22:58;;;;;;;;;;;25.10;48.40;;;;;;5075627;28;20020;-82
2021/06/07 11:25:23;;;;;;;4.10;2.47;;;24.90;48.00;;;;;;5075678;28;19904;-81
2021/06/07 11:27:49;;;;;;;10.68;3.30;;;24.80;49.00;;;;;;5076034;28;20150;-82
2021/06/07 11:30:20;;;;;;;3.90;2.83;;;24.80;49.50;;;;;;5089279;28;20028;-79
2021/06/07 11:32:47;;;;;;;12.13;3.20;;;24.90;49.90;;;;;;5079320;28;20091;-82
2021/06/07 11:35:44;;;;;;;6.63;3.40;;;24.90;50.40;;;;;;5073388;28;20020;-81
2021/06/07 11:38:35;;;;;;;7.53;3.63;;;24.90;50.10;;;;;;5059484;28;20031;-82
2021/06/07 11:41:04;;;;;;;4.00;2.15;;;24.90;50.30;;;;;;5073210;28;20073;-82
2021/06/07 11:43:59;;;;;;;5.40;3.47;;;24.80;49.90;;;;;;5072946;28;20048;-81
2021/06/07 11:46:30;;;;;;;3.97;2.88;;;24.70;50.50;;;;;;5060208;28;20048;-80
2021/06/07 11:49:15;;;;;;;11.52;6.72;;;24.60;50.30;;;;;;5072052;28;20525;-81
2021/06/07 11:51:43;;;;;;;5.55;3.08;;;24.60;51.10;;;;;;5073107;28;20027;-82
2021/06/07 11:54:40;;;;;;;6.95;3.70;;;24.60;50.40;;;;;;5073127;28;20032;-81
2021/06/07 11:57:07;;;;;;;42.97;7.10;;;24.60;50.10;;;;;;5060769;28;20032;-80
2021/06/07 11:59:36;;;;;;;3.13;2.47;;;24.50;51.20;;;;;;5073022;28;20040;-80
2021/06/07 12:02:08;;;;;;;3.60;2.65;;;24.50;50.80;;;;;;5073111;28;20267;-82
2021/06/07 12:04:34;;;;;;;4.05;3.40;;;24.60;51.10;;;;;;5072639;28;20054;-81
2021/06/07 12:07:03;;;;;;;5.57;3.30;;;24.60;51.80;;;;;;5072445;28;20028;-80
2021/06/07 12:09:30;;;;;;;8.23;3.35;;;24.80;51.50;;;;;;5073047;28;20023;-82
2021/06/07 12:11:56;;;;;;;7.53;3.53;;;24.90;52.60;;;;;;5071394;28;20024;-82
2021/06/07 12:14:34;;;;;;;4.70;2.88;;;25.00;53.50;;;;;;5073202;28;20029;-81
2021/06/07 12:17:05;;;;;;;;;;;25.00;53.30;;;;;;5072931;28;20078;-81
2021/06/07 12:19:40;;;;;;;5.10;3.22;;;24.80;53.20;;;;;;5059401;28;20309;-81
2021/06/07 12:22:07;;;;;;;7.07;3.38;;;24.60;54.20;;;;;;5071677;28;20372;-81
2021/06/07 12:24:34;;;;;;;6.00;3.38;;;24.70;55.10;;;;;;5072787;28;20025;-80
2021/06/07 12:29:47;;;;;;;3.88;3.10;;;24.60;54.20;;;;;;5072904;28;19989;-80
2021/06/07 12:32:22;;;;;;;5.40;3.80;;;24.70;55.10;;;;;;5072725;28;20025;-81
2021/06/07 12:35:06;;;;;;;5.20;3.55;;;24.80;55.20;;;;;;5059953;28;20042;-82
2021/06/07 12:37:37;;;;;;;4.13;2.88;;;24.80;54.60;;;;;;5072718;28;20138;-80
2021/06/07 12:40:10;;;;;;;5.63;2.35;;;24.50;54.70;;;;;;5074952;28;20390;-82
2021/06/07 12:42:37;;;;;;;6.22;2.60;;;23.90;55.50;;;;;;5074820;28;20034;-81
2021/06/07 12:45:11;;;;;;;5.30;2.10;;;23.50;55.10;;;;;;5071713;28;20029;-81
2021/06/07 12:47:37;;;;;;;3.95;2.13;;;23.20;55.50;;;;;;5073397;28;20099;-81
2021/06/07 12:50:24;;;;;;;7.90;2.58;;;23.00;56.30;;;;;;5071319;28;20056;-80
2021/06/07 12:52:55;;;;;;;6.80;2.97;;;23.00;56.50;;;;;;5072441;28;20028;-81
2021/06/07 12:55:26;;;;;;;5.65;2.90;;;23.00;57.10;;;;;;5072537;28;20035;-80
2021/06/07 12:57:53;;;;;;;6.55;3.75;;;23.10;57.00;;;;;;5072393;28;20082;-81
2021/06/07 13:00:22;;;;;;;7.18;3.47;;;23.30;56.10;;;;;;5073139;28;20029;-81
2021/06/07 13:02:48;;;;;;;5.85;3.22;;;23.60;55.40;;;;;;5076255;28;20481;-81
2021/06/07 13:05:26;;;;;;;3.83;2.63;;;23.90;54.80;;;;;;5076021;28;20073;-82
2021/06/07 13:08:16;;;;;;;9.57;2.70;;;24.30;54.50;;;;;;5074411;28;20039;-80
2021/06/07 13:10:45;;;;;;;8.40;3.10;;;24.50;53.80;;;;;;5063870;28;20025;-80